sensor_id;sensor_type;location;lat;lon;timestamp;pressure;altitude;pressure_sealevel;temperature;humidity
56334;BME280;42240;53.626;55.886;2022-10-13T00:00:58;75463.47;;;-145.10;37.30
56334;BME280;42240;53.626;55.886;2022-10-13T00:02:32;75461.47;;;-145.10;37.27
56334;BME280;42240;53.626;55.886;2022-10-13T00:04:06;75463.47;;;-145.10;37.29
56334;BME280;42240;53.626;55.886;2022-10-13T00:05:41;75457.53;;;-145.10;37.51
56334;BME280;42240;53.626;55.886;2022-10-13T00:07:15;75465.44;;;-145.10;37.70
56334;BME280;42240;53.626;55.886;2022-10-13T00:08:49;75457.53;;;-145.10;37.66
56334;BME280;42240;53.626;55.886;2022-10-13T00:10:22;75461.47;;;-145.10;38.00
56334;BME280;42240;53.626;55.886;2022-10-13T00:11:56;75463.47;;;-145.10;37.86
56334;BME280;42240;53.626;55.886;2022-10-13T00:13:30;75457.53;;;-145.10;37.82
56334;BME280;42240;53.626;55.886;2022-10-13T00:15:05;75457.53;;;-145.10;38.15
56334;BME280;42240;53.626;55.886;2022-10-13T00:16:39;75457.53;;;-145.10;38.20
56334;BME280;42240;53.626;55.886;2022-10-13T00:18:14;75501.03;;;-145.10;38.38
56334;BME280;42240;53.626;55.886;2022-10-13T00:19:48;75463.47;;;-145.10;38.36
56334;BME280;42240;53.626;55.886;2022-10-13T00:21:23;75463.47;;;-145.10;38.42
56334;BME280;42240;53.626;55.886;2022-10-13T00:22:58;75465.44;;;-145.10;38.60
56334;BME280;42240;53.626;55.886;2022-10-13T00:24:31;75467.41;;;-145.10;38.69
56334;BME280;42240;53.626;55.886;2022-10-13T00:26:07;75503.00;;;-145.10;38.92
56334;BME280;42240;53.626;55.886;2022-10-13T00:27:40;75473.34;;;-145.10;38.64
56334;BME280;42240;53.626;55.886;2022-10-13T00:29:14;75475.31;;;-145.10;38.84
56334;BME280;42240;53.626;55.886;2022-10-13T00:30:47;75477.28;;;-145.10;38.86
56334;BME280;42240;53.626;55.886;2022-10-13T00:32:20;75477.28;;;-145.10;39.05
56334;BME280;42240;53.626;55.886;2022-10-13T00:33:54;75479.28;;;-145.10;39.11
56334;BME280;42240;53.626;55.886;2022-10-13T00:35:28;75481.25;;;-145.10;39.05
56334;BME280;42240;53.626;55.886;2022-10-13T00:37:03;75477.28;;;-145.10;39.08
56334;BME280;42240;53.626;55.886;2022-10-13T00:38:37;75477.28;;;-145.10;38.83
56334;BME280;42240;53.626;55.886;2022-10-13T00:40:11;75473.34;;;-145.10;38.87
56334;BME280;42240;53.626;55.886;2022-10-13T00:41:45;75477.28;;;-145.10;38.79
56334;BME280;42240;53.626;55.886;2022-10-13T00:43:24;75479.28;;;-145.10;38.83
56334;BME280;42240;53.626;55.886;2022-10-13T00:45:14;75473.34;;;-145.10;38.72
56334;BME280;42240;53.626;55.886;2022-10-13T00:46:52;75477.28;;;-145.10;38.87
56334;BME280;42240;53.626;55.886;2022-10-13T00:48:28;75485.19;;;-145.10;39.02
56334;BME280;42240;53.626;55.886;2022-10-13T00:50:05;75481.25;;;-145.10;38.68
56334;BME280;42240;53.626;55.886;2022-10-13T00:51:47;75491.13;;;-145.10;38.78
56334;BME280;42240;53.626;55.886;2022-10-13T00:53:24;75487.19;;;-145.10;38.86
56334;BME280;42240;53.626;55.886;2022-10-13T00:55:01;75493.13;;;-145.10;38.92
56334;BME280;42240;53.626;55.886;2022-10-13T00:56:36;75501.03;;;-145.10;39.10
56334;BME280;42240;53.626;55.886;2022-10-13T00:58:14;75524.75;;;-145.10;39.06
56334;BME280;42240;53.626;55.886;2022-10-13T00:59:48;75506.94;;;-145.10;38.95
56334;BME280;42240;53.626;55.886;2022-10-13T01:01:22;75516.84;;;-145.10;39.10
56334;BME280;42240;53.626;55.886;2022-10-13T01:02:56;75510.91;;;-145.10;39.13
56334;BME280;42240;53.626;55.886;2022-10-13T01:04:33;75514.84;;;-145.10;39.03
56334;BME280;42240;53.626;55.886;2022-10-13T01:06:10;75566.25;;;-145.10;39.33
56334;BME280;42240;53.626;55.886;2022-10-13T01:07:48;75510.91;;;-145.10;39.42
56334;BME280;42240;53.626;55.886;2022-10-13T01:09:23;75516.84;;;-145.10;39.38
56334;BME280;42240;53.626;55.886;2022-10-13T01:11:18;75516.84;;;-145.10;39.56
56334;BME280;42240;53.626;55.886;2022-10-13T01:31:26;75514.84;;;-145.10;39.38
56334;BME280;42240;53.626;55.886;2022-10-13T01:34:46;75518.81;;;-145.10;39.27
56334;BME280;42240;53.626;55.886;2022-10-13T01:36:37;75504.97;;;-145.10;39.20
56334;BME280;42240;53.626;55.886;2022-10-13T01:38:27;75508.94;;;-145.10;39.39
56334;BME280;42240;53.626;55.886;2022-10-13T01:40:21;75516.84;;;-145.10;39.31
56334;BME280;42240;53.626;55.886;2022-10-13T01:42:04;75558.34;;;-145.10;39.46
56334;BME280;42240;53.626;55.886;2022-10-13T01:43:50;75520.78;;;-145.10;39.62
56334;BME280;42240;53.626;55.886;2022-10-13T01:45:42;75524.75;;;-145.10;39.61
56334;BME280;42240;53.626;55.886;2022-10-13T01:47:18;75518.81;;;-145.10;39.51
56334;BME280;42240;53.626;55.886;2022-10-13T01:48:55;75516.84;;;-145.10;39.52
56334;BME280;42240;53.626;55.886;2022-10-13T01:50:33;75516.84;;;-145.10;39.44
56334;BME280;42240;53.626;55.886;2022-10-13T01:52:14;75580.09;;;-145.10;39.50
56334;BME280;42240;53.626;55.886;2022-10-13T01:53:49;75516.84;;;-145.10;39.54
56334;BME280;42240;53.626;55.886;2022-10-13T01:55:23;75520.78;;;-145.10;39.65
56334;BME280;42240;53.626;55.886;2022-10-13T01:56:57;75516.84;;;-145.10;39.72
56334;BME280;42240;53.626;55.886;2022-10-13T01:58:33;75514.84;;;-145.10;39.52
56334;BME280;42240;53.626;55.886;2022-10-13T02:00:15;75510.91;;;-145.10;39.41
56334;BME280;42240;53.626;55.886;2022-10-13T02:02:02;75558.34;;;-145.10;39.58
56334;BME280;42240;53.626;55.886;2022-10-13T02:05:42;75508.94;;;-145.10;39.37
56334;BME280;42240;53.626;55.886;2022-10-13T02:07:29;75504.97;;;-145.10;39.65
56334;BME280;42240;53.626;55.886;2022-10-13T02:09:23;75504.97;;;-145.10;39.56
56334;BME280;42240;53.626;55.886;2022-10-13T02:11:14;75503.00;;;-145.10;39.58
56334;BME280;42240;53.626;55.886;2022-10-13T02:12:56;75508.94;;;-145.10;39.61
56334;BME280;42240;53.626;55.886;2022-10-13T02:14:33;75506.94;;;-145.10;39.65
56334;BME280;42240;53.626;55.886;2022-10-13T02:16:09;75508.94;;;-145.10;39.75
56334;BME280;42240;53.626;55.886;2022-10-13T02:17:43;75510.91;;;-145.10;39.87
56334;BME280;42240;53.626;55.886;2022-10-13T02:19:17;75508.94;;;-145.10;39.92
56334;BME280;42240;53.626;55.886;2022-10-13T02:20:53;75512.88;;;-145.10;40.03
56334;BME280;42240;53.626;55.886;2022-10-13T02:22:30;75508.94;;;-145.10;40.07
56334;BME280;42240;53.626;55.886;2022-10-13T02:24:07;75512.88;;;-145.10;40.11
56334;BME280;42240;53.626;55.886;2022-10-13T02:25:41;75518.81;;;-145.10;40.22
56334;BME280;42240;53.626;55.886;2022-10-13T02:27:15;75524.75;;;-145.10;40.36
56334;BME280;42240;53.626;55.886;2022-10-13T02:28:49;75520.78;;;-145.10;40.34
56334;BME280;42240;53.626;55.886;2022-10-13T02:30:25;75520.78;;;-145.10;40.39
56334;BME280;42240;53.626;55.886;2022-10-13T02:31:59;75516.84;;;-145.10;40.55
56334;BME280;42240;53.626;55.886;2022-10-13T02:33:33;75544.50;;;-145.10;40.83
56334;BME280;42240;53.626;55.886;2022-10-13T02:35:07;75520.78;;;-145.10;40.69
56334;BME280;42240;53.626;55.886;2022-10-13T02:36:41;75528.69;;;-145.10;40.75
56334;BME280;42240;53.626;55.886;2022-10-13T02:38:14;75528.69;;;-145.10;40.89
56334;BME280;42240;53.626;55.886;2022-10-13T02:39:48;75528.69;;;-145.10;40.85
56334;BME280;42240;53.626;55.886;2022-10-13T02:41:23;75528.69;;;-145.10;40.97
56334;BME280;42240;53.626;55.886;2022-10-13T02:42:57;75548.47;;;-145.10;41.02
56334;BME280;42240;53.626;55.886;2022-10-13T02:44:31;75530.66;;;-145.10;41.10
56334;BME280;42240;53.626;55.886;2022-10-13T02:46:04;75528.69;;;-145.10;41.29
56334;BME280;42240;53.626;55.886;2022-10-13T02:47:38;75528.69;;;-145.10;41.45
56334;BME280;42240;53.626;55.886;2022-10-13T02:49:11;75540.56;;;-145.10;41.55
56334;BME280;42240;53.626;55.886;2022-10-13T02:50:45;75534.63;;;-145.10;41.48
56334;BME280;42240;53.626;55.886;2022-10-13T02:52:19;75534.63;;;-145.10;41.57
56334;BME280;42240;53.626;55.886;2022-10-13T02:53:53;75534.63;;;-145.10;41.67
56334;BME280;42240;53.626;55.886;2022-10-13T02:55:27;75534.63;;;-145.10;41.52
56334;BME280;42240;53.626;55.886;2022-10-13T02:57:00;75534.63;;;-145.10;41.62
56334;BME280;42240;53.626;55.886;2022-10-13T02:58:34;75536.59;;;-145.10;41.80
56334;BME280;42240;53.626;55.886;2022-10-13T03:00:08;75532.66;;;-145.10;41.55
56334;BME280;42240;53.626;55.886;2022-10-13T03:01:41;75536.59;;;-145.10;41.62
56334;BME280;42240;53.626;55.886;2022-10-13T03:03:16;75542.53;;;-145.10;41.52
56334;BME280;42240;53.626;55.886;2022-10-13T03:04:51;75546.50;;;-145.10;41.98
56334;BME280;42240;53.626;55.886;2022-10-13T03:06:24;75552.41;;;-145.10;41.97
56334;BME280;42240;53.626;55.886;2022-10-13T03:07:58;75564.28;;;-145.10;42.52
56334;BME280;42240;53.626;55.886;2022-10-13T03:09:32;75568.22;;;-145.10;42.85
56334;BME280;42240;53.626;55.886;2022-10-13T03:11:06;75572.19;;;-145.10;42.96
56334;BME280;42240;53.626;55.886;2022-10-13T03:12:39;75588.00;;;-145.10;43.14
56334;BME280;42240;53.626;55.886;2022-10-13T03:14:13;75580.09;;;-145.10;43.20
56334;BME280;42240;53.626;55.886;2022-10-13T03:15:46;75589.97;;;-145.10;43.74
56334;BME280;42240;53.626;55.886;2022-10-13T03:17:19;75599.88;;;-145.10;44.24
56334;BME280;42240;53.626;55.886;2022-10-13T03:18:52;75607.78;;;-145.10;44.16
56334;BME280;42240;53.626;55.886;2022-10-13T03:20:26;75609.75;;;-145.10;44.03
56334;BME280;42240;53.626;55.886;2022-10-13T03:21:59;75623.59;;;-145.10;44.27
56334;BME280;42240;53.626;55.886;2022-10-13T03:23:33;75655.22;;;-145.10;44.53
56334;BME280;42240;53.626;55.886;2022-10-13T03:25:06;75625.56;;;-145.10;44.36
56334;BME280;42240;53.626;55.886;2022-10-13T03:26:41;75631.50;;;-145.10;44.19
56334;BME280;42240;53.626;55.886;2022-10-13T03:28:15;75635.44;;;-145.10;44.70
56334;BME280;42240;53.626;55.886;2022-10-13T03:29:50;75629.53;;;-145.10;44.74
56334;BME280;42240;53.626;55.886;2022-10-13T03:31:23;75625.56;;;-145.10;44.53
56334;BME280;42240;53.626;55.886;2022-10-13T03:33:04;75635.44;;;-145.10;45.18
56334;BME280;42240;53.626;55.886;2022-10-13T03:34:38;75637.44;;;-145.10;44.70
56334;BME280;42240;53.626;55.886;2022-10-13T03:36:12;75649.28;;;-145.10;44.83
56334;BME280;42240;53.626;55.886;2022-10-13T03:37:46;75645.34;;;-145.10;44.82
56334;BME280;42240;53.626;55.886;2022-10-13T03:39:20;75655.22;;;-145.10;44.77
56334;BME280;42240;53.626;55.886;2022-10-13T03:40:54;75657.19;;;-145.10;44.92
56334;BME280;42240;53.626;55.886;2022-10-13T03:42:31;75659.16;;;-145.10;44.97
56334;BME280;42240;53.626;55.886;2022-10-13T03:44:04;75663.13;;;-145.10;45.29
56334;BME280;42240;53.626;55.886;2022-10-13T03:45:39;75663.13;;;-145.10;45.00
56334;BME280;42240;53.626;55.886;2022-10-13T03:47:13;75659.16;;;-145.10;45.03
56334;BME280;42240;53.626;55.886;2022-10-13T03:48:47;75659.16;;;-145.10;44.83
56334;BME280;42240;53.626;55.886;2022-10-13T03:50:20;75665.09;;;-145.10;45.06
56334;BME280;42240;53.626;55.886;2022-10-13T03:51:53;75663.13;;;-145.10;45.18
56334;BME280;42240;53.626;55.886;2022-10-13T03:53:27;75659.16;;;-145.10;45.15
56334;BME280;42240;53.626;55.886;2022-10-13T03:55:01;75657.19;;;-145.10;45.15
56334;BME280;42240;53.626;55.886;2022-10-13T03:56:34;75690.81;;;-145.10;45.15
56334;BME280;42240;53.626;55.886;2022-10-13T03:58:09;75653.25;;;-145.10;45.31
56334;BME280;42240;53.626;55.886;2022-10-13T03:59:45;75655.22;;;-145.10;45.29
56334;BME280;42240;53.626;55.886;2022-10-13T04:01:23;75655.22;;;-145.10;45.24
56334;BME280;42240;53.626;55.886;2022-10-13T04:02:57;75659.16;;;-145.10;45.31
56334;BME280;42240;53.626;55.886;2022-10-13T04:04:30;75649.28;;;-145.10;45.95
56334;BME280;42240;53.626;55.886;2022-10-13T04:06:04;75647.31;;;-145.10;45.96
56334;BME280;42240;53.626;55.886;2022-10-13T04:07:38;75651.25;;;-145.10;45.88
56334;BME280;42240;53.626;55.886;2022-10-13T04:09:23;75651.25;;;-145.10;45.75
56334;BME280;42240;53.626;55.886;2022-10-13T04:11:01;75655.22;;;-145.10;45.96
56334;BME280;42240;53.626;55.886;2022-10-13T04:12:34;75649.28;;;-145.10;45.97
56334;BME280;42240;53.626;55.886;2022-10-13T04:14:08;75641.38;;;-145.10;46.10
56334;BME280;42240;53.626;55.886;2022-10-13T04:15:44;75639.41;;;-145.10;46.29
56334;BME280;42240;53.626;55.886;2022-10-13T04:17:17;75635.44;;;-145.10;46.69
56334;BME280;42240;53.626;55.886;2022-10-13T04:19:00;75639.41;;;-145.10;47.02
56334;BME280;42240;53.626;55.886;2022-10-13T04:20:38;75682.91;;;-145.10;47.01
56334;BME280;42240;53.626;55.886;2022-10-13T04:22:12;75643.34;;;-145.10;46.88
56334;BME280;42240;53.626;55.886;2022-10-13T04:23:55;75631.50;;;-145.10;47.32
56334;BME280;42240;53.626;55.886;2022-10-13T04:25:30;75635.44;;;-145.10;47.09
56334;BME280;42240;53.626;55.886;2022-10-13T04:27:04;75631.50;;;-145.10;47.61
56334;BME280;42240;53.626;55.886;2022-10-13T04:28:38;75633.47;;;-145.10;47.74
56334;BME280;42240;53.626;55.886;2022-10-13T04:30:12;75633.47;;;-145.10;47.67
56334;BME280;42240;53.626;55.886;2022-10-13T04:31:51;75637.44;;;-145.10;47.83
56334;BME280;42240;53.626;55.886;2022-10-13T04:33:28;75645.34;;;-145.10;48.35
56334;BME280;42240;53.626;55.886;2022-10-13T04:35:02;75667.06;;;-145.10;48.83
56334;BME280;42240;53.626;55.886;2022-10-13T04:36:37;75637.44;;;-145.10;48.89
56334;BME280;42240;53.626;55.886;2022-10-13T04:38:11;75649.28;;;-145.10;49.29
56334;BME280;42240;53.626;55.886;2022-10-13T04:39:44;75635.44;;;-145.10;49.58
56334;BME280;42240;53.626;55.886;2022-10-13T04:41:19;75635.44;;;-145.10;49.46
56334;BME280;42240;53.626;55.886;2022-10-13T04:42:53;75633.47;;;-145.10;49.55
56334;BME280;42240;53.626;55.886;2022-10-13T04:44:26;75635.44;;;-145.10;49.97
56334;BME280;42240;53.626;55.886;2022-10-13T04:46:09;75651.25;;;-145.10;50.08
56334;BME280;42240;53.626;55.886;2022-10-13T04:47:44;75627.53;;;-145.10;49.60
56334;BME280;42240;53.626;55.886;2022-10-13T04:49:18;75627.53;;;-145.10;49.51
56334;BME280;42240;53.626;55.886;2022-10-13T04:51:06;75661.16;;;-145.10;49.28
56334;BME280;42240;53.626;55.886;2022-10-13T04:52:58;75615.69;;;-145.10;49.61
56334;BME280;42240;53.626;55.886;2022-10-13T04:54:32;75595.91;;;-145.10;50.04
56334;BME280;42240;53.626;55.886;2022-10-13T04:56:09;75584.06;;;-145.10;49.93
56334;BME280;42240;53.626;55.886;2022-10-13T04:57:45;75588.00;;;-145.10;49.44
56334;BME280;42240;53.626;55.886;2022-10-13T04:59:19;75591.97;;;-145.10;49.89
56334;BME280;42240;53.626;55.886;2022-10-13T05:00:53;75578.13;;;-145.10;49.40
56334;BME280;42240;53.626;55.886;2022-10-13T05:02:27;75584.06;;;-145.10;49.53
56334;BME280;42240;53.626;55.886;2022-10-13T05:04:02;75572.19;;;-145.10;49.61
56334;BME280;42240;53.626;55.886;2022-10-13T05:05:40;75589.97;;;-145.10;49.76
56334;BME280;42240;53.626;55.886;2022-10-13T05:07:14;75623.59;;;-145.10;49.76
56334;BME280;42240;53.626;55.886;2022-10-13T05:08:53;75576.13;;;-145.10;49.20
56334;BME280;42240;53.626;55.886;2022-10-13T05:10:26;75580.09;;;-145.10;49.28
56334;BME280;42240;53.626;55.886;2022-10-13T05:12:06;75588.00;;;-145.10;48.97
56334;BME280;42240;53.626;55.886;2022-10-13T05:13:39;75588.00;;;-145.10;48.65
56334;BME280;42240;53.626;55.886;2022-10-13T05:15:13;75599.88;;;-145.10;48.74
56334;BME280;42240;53.626;55.886;2022-10-13T05:16:47;75593.94;;;-145.10;49.29
56334;BME280;42240;53.626;55.886;2022-10-13T05:18:22;75589.97;;;-145.10;50.21
56334;BME280;42240;53.626;55.886;2022-10-13T05:19:55;75586.03;;;-145.10;50.99
56334;BME280;42240;53.626;55.886;2022-10-13T05:21:29;75588.00;;;-145.10;51.91
56334;BME280;42240;53.626;55.886;2022-10-13T05:23:03;75591.97;;;-145.10;52.93
56334;BME280;42240;53.626;55.886;2022-10-13T05:24:36;75591.97;;;-145.10;54.56
56334;BME280;42240;53.626;55.886;2022-10-13T05:26:14;75601.84;;;-145.10;53.28
56334;BME280;42240;53.626;55.886;2022-10-13T05:27:48;75601.84;;;-145.10;54.06
56334;BME280;42240;53.626;55.886;2022-10-13T05:29:21;75609.75;;;-145.10;54.21
56334;BME280;42240;53.626;55.886;2022-10-13T05:30:55;75617.66;;;-145.10;55.26
56334;BME280;42240;53.626;55.886;2022-10-13T05:32:29;75625.56;;;-145.10;55.83
56334;BME280;42240;53.626;55.886;2022-10-13T05:34:02;75623.59;;;-145.10;56.41
56334;BME280;42240;53.626;55.886;2022-10-13T05:35:36;75617.66;;;-145.10;56.54
56334;BME280;42240;53.626;55.886;2022-10-13T05:37:09;75619.63;;;-145.10;56.04
56334;BME280;42240;53.626;55.886;2022-10-13T05:38:43;75609.75;;;-145.10;57.19
56334;BME280;42240;53.626;55.886;2022-10-13T05:40:16;75611.72;;;-145.10;58.21
56334;BME280;42240;53.626;55.886;2022-10-13T05:41:49;75599.88;;;-145.10;59.52
56334;BME280;42240;53.626;55.886;2022-10-13T05:43:26;75584.06;;;-145.10;60.98
56334;BME280;42240;53.626;55.886;2022-10-13T05:45:00;75568.22;;;-145.10;62.29
56334;BME280;42240;53.626;55.886;2022-10-13T05:46:35;75560.31;;;-145.10;63.01
56334;BME280;42240;53.626;55.886;2022-10-13T05:48:09;75584.06;;;-145.10;63.36
56334;BME280;42240;53.626;55.886;2022-10-13T05:49:43;75538.59;;;-145.10;65.15
56334;BME280;42240;53.626;55.886;2022-10-13T05:51:21;75570.22;;;-145.10;64.59
56334;BME280;42240;53.626;55.886;2022-10-13T05:52:55;75536.59;;;-145.10;64.48
56334;BME280;42240;53.626;55.886;2022-10-13T05:54:32;75524.75;;;-145.10;64.62
56334;BME280;42240;53.626;55.886;2022-10-13T05:56:10;75558.34;;;-145.10;62.41
56334;BME280;42240;53.626;55.886;2022-10-13T05:57:48;75508.94;;;-145.10;62.36
56334;BME280;42240;53.626;55.886;2022-10-13T05:59:25;75493.13;;;-145.10;63.17
56334;BME280;42240;53.626;55.886;2022-10-13T06:01:01;75485.19;;;-145.10;61.73
56334;BME280;42240;53.626;55.886;2022-10-13T06:02:54;75489.16;;;-145.10;61.10
56334;BME280;42240;53.626;55.886;2022-10-13T06:04:36;75479.28;;;-145.10;61.30
56334;BME280;42240;53.626;55.886;2022-10-13T06:06:11;75461.47;;;-145.10;60.61
56334;BME280;42240;53.626;55.886;2022-10-13T06:07:45;75423.94;;;-145.10;59.90
56334;BME280;42240;53.626;55.886;2022-10-13T06:09:20;75406.13;;;-145.10;57.78
56334;BME280;42240;53.626;55.886;2022-10-13T06:10:54;75402.19;;;-145.10;56.94
56334;BME280;42240;53.626;55.886;2022-10-13T06:12:28;75414.03;;;-145.10;57.26
56334;BME280;42240;53.626;55.886;2022-10-13T06:14:01;75398.22;;;-145.10;56.34
56334;BME280;42240;53.626;55.886;2022-10-13T06:15:35;75408.09;;;-145.10;55.85
56334;BME280;42240;53.626;55.886;2022-10-13T06:17:09;75425.91;;;-145.10;56.67
56334;BME280;42240;53.626;55.886;2022-10-13T06:18:47;75439.75;;;-145.10;57.46
56334;BME280;42240;53.626;55.886;2022-10-13T06:20:21;75421.94;;;-145.10;55.70
56334;BME280;42240;53.626;55.886;2022-10-13T06:21:54;75421.94;;;-145.10;55.54
56334;BME280;42240;53.626;55.886;2022-10-13T06:23:34;75394.28;;;-145.10;56.11
56334;BME280;42240;53.626;55.886;2022-10-13T06:25:08;75366.59;;;-145.10;55.70
56334;BME280;42240;53.626;55.886;2022-10-13T06:26:41;75370.53;;;-145.10;55.76
56334;BME280;42240;53.626;55.886;2022-10-13T06:28:16;75362.63;;;-145.10;56.33
56334;BME280;42240;53.626;55.886;2022-10-13T06:29:51;75380.44;;;-145.10;55.61
56334;BME280;42240;53.626;55.886;2022-10-13T06:31:24;75340.91;;;-145.10;56.59
56334;BME280;42240;53.626;55.886;2022-10-13T06:32:58;75354.72;;;-145.10;57.01
56334;BME280;42240;53.626;55.886;2022-10-13T06:34:32;75404.16;;;-145.10;55.55
56334;BME280;42240;53.626;55.886;2022-10-13T06:36:06;75431.84;;;-145.10;56.19
56334;BME280;42240;53.626;55.886;2022-10-13T06:37:39;75453.56;;;-145.10;57.87
56334;BME280;42240;53.626;55.886;2022-10-13T06:39:14;75461.47;;;-145.10;58.38
56334;BME280;42240;53.626;55.886;2022-10-13T06:40:48;75471.38;;;-145.10;59.43
56334;BME280;42240;53.626;55.886;2022-10-13T06:42:22;75455.56;;;-145.10;59.90
56334;BME280;42240;53.626;55.886;2022-10-13T06:44:12;75477.28;;;-145.10;58.46
56334;BME280;42240;53.626;55.886;2022-10-13T06:45:46;75481.25;;;-145.10;59.69
56334;BME280;42240;53.626;55.886;2022-10-13T06:47:19;75481.25;;;-145.10;60.14
56334;BME280;42240;53.626;55.886;2022-10-13T06:48:53;75508.94;;;-145.10;59.53
56334;BME280;42240;53.626;55.886;2022-10-13T06:50:29;75514.84;;;-145.10;60.08
56334;BME280;42240;53.626;55.886;2022-10-13T06:52:04;75520.78;;;-145.10;60.40
56334;BME280;42240;53.626;55.886;2022-10-13T06:53:38;75532.66;;;-145.10;61.11
56334;BME280;42240;53.626;55.886;2022-10-13T06:55:12;75532.66;;;-145.10;61.66
56334;BME280;42240;53.626;55.886;2022-10-13T06:56:45;75548.47;;;-145.10;61.79
56334;BME280;42240;53.626;55.886;2022-10-13T06:58:19;75552.41;;;-145.10;62.21
56334;BME280;42240;53.626;55.886;2022-10-13T06:59:52;75552.41;;;-145.10;62.92
56334;BME280;42240;53.626;55.886;2022-10-13T07:01:26;75564.28;;;-145.10;63.53
56334;BME280;42240;53.626;55.886;2022-10-13T07:02:59;75562.31;;;-145.10;64.05
56334;BME280;42240;53.626;55.886;2022-10-13T07:04:33;75556.38;;;-145.10;63.99
56334;BME280;42240;53.626;55.886;2022-10-13T07:06:06;75552.41;;;-145.10;64.92
56334;BME280;42240;53.626;55.886;2022-10-13T07:07:40;75536.59;;;-145.10;64.88
56334;BME280;42240;53.626;55.886;2022-10-13T07:09:14;75532.66;;;-145.10;65.64
56334;BME280;42240;53.626;55.886;2022-10-13T07:10:47;75544.50;;;-145.10;65.80
56334;BME280;42240;53.626;55.886;2022-10-13T07:12:20;75540.56;;;-145.10;65.80
56334;BME280;42240;53.626;55.886;2022-10-13T07:13:55;75548.47;;;-145.10;65.88
56334;BME280;42240;53.626;55.886;2022-10-13T07:15:28;75552.41;;;-145.10;65.54
56334;BME280;42240;53.626;55.886;2022-10-13T07:17:02;75568.22;;;-145.10;66.46
56334;BME280;42240;53.626;55.886;2022-10-13T07:18:36;75542.53;;;-145.10;66.66
56334;BME280;42240;53.626;55.886;2022-10-13T07:20:09;75520.78;;;-145.10;67.13
56334;BME280;42240;53.626;55.886;2022-10-13T07:21:43;75528.69;;;-145.10;67.03
56334;BME280;42240;53.626;55.886;2022-10-13T07:23:16;75536.59;;;-145.10;67.46
56334;BME280;42240;53.626;55.886;2022-10-13T07:24:49;75536.59;;;-145.10;67.49
56334;BME280;42240;53.626;55.886;2022-10-13T07:26:24;75552.41;;;-145.10;68.29
56334;BME280;42240;53.626;55.886;2022-10-13T07:27:58;75546.50;;;-145.10;68.42
56334;BME280;42240;53.626;55.886;2022-10-13T07:29:32;75540.56;;;-145.10;68.15
56334;BME280;42240;53.626;55.886;2022-10-13T07:31:07;75528.69;;;-145.10;68.79
56334;BME280;42240;53.626;55.886;2022-10-13T07:32:43;75536.59;;;-145.10;69.09
56334;BME280;42240;53.626;55.886;2022-10-13T07:34:16;75542.53;;;-145.10;69.64
56334;BME280;42240;53.626;55.886;2022-10-13T07:35:49;75554.41;;;-145.10;69.85
56334;BME280;42240;53.626;55.886;2022-10-13T07:37:22;75548.47;;;-145.10;70.26
56334;BME280;42240;53.626;55.886;2022-10-13T07:38:57;75550.44;;;-145.10;70.72
56334;BME280;42240;53.626;55.886;2022-10-13T07:40:30;75552.41;;;-145.10;71.12
56334;BME280;42240;53.626;55.886;2022-10-13T07:42:04;75564.28;;;-145.10;71.36
56334;BME280;42240;53.626;55.886;2022-10-13T07:43:37;75607.78;;;-145.10;72.05
56334;BME280;42240;53.626;55.886;2022-10-13T07:45:11;75564.28;;;-145.10;72.69
56334;BME280;42240;53.626;55.886;2022-10-13T07:46:44;75560.31;;;-145.10;73.08
56334;BME280;42240;53.626;55.886;2022-10-13T07:48:18;75574.16;;;-145.10;75.72
56334;BME280;42240;53.626;55.886;2022-10-13T07:49:51;75595.91;;;-145.10;75.70
56334;BME280;42240;53.626;55.886;2022-10-13T07:51:26;75605.78;;;-145.10;76.94
56334;BME280;42240;53.626;55.886;2022-10-13T07:53:00;75643.34;;;-145.10;79.14
56334;BME280;42240;53.626;55.886;2022-10-13T07:54:34;75649.28;;;-145.10;82.13
56334;BME280;42240;53.626;55.886;2022-10-13T07:56:10;75669.06;;;-145.10;84.48
56334;BME280;42240;53.626;55.886;2022-10-13T07:57:44;75690.81;;;-145.10;87.69
56334;BME280;42240;53.626;55.886;2022-10-13T07:59:18;75734.28;;;-145.10;89.77
56334;BME280;42240;53.626;55.886;2022-10-13T08:00:58;75710.56;;;-145.10;91.87
56334;BME280;42240;53.626;55.886;2022-10-13T08:02:32;75712.56;;;-145.10;92.54
56334;BME280;42240;53.626;55.886;2022-10-13T08:04:06;75714.53;;;-145.10;94.14
56334;BME280;42240;53.626;55.886;2022-10-13T08:05:40;75714.53;;;-145.10;94.97
56334;BME280;42240;53.626;55.886;2022-10-13T08:07:13;75726.38;;;-145.10;95.31
56334;BME280;42240;53.626;55.886;2022-10-13T08:08:52;75730.34;;;-145.10;96.79
56334;BME280;42240;53.626;55.886;2022-10-13T08:10:27;75732.31;;;-145.10;97.28
56334;BME280;42240;53.626;55.886;2022-10-13T08:12:01;75740.22;;;-145.10;98.47
56334;BME280;42240;53.626;55.886;2022-10-13T08:13:34;75714.53;;;-145.10;98.68
56334;BME280;42240;53.626;55.886;2022-10-13T08:15:25;75702.66;;;-145.10;98.73
56334;BME280;42240;53.626;55.886;2022-10-13T08:16:59;75694.75;;;-145.10;98.82
56334;BME280;42240;53.626;55.886;2022-10-13T08:18:33;75688.81;;;-145.10;98.90
56334;BME280;42240;53.626;55.886;2022-10-13T08:20:08;75696.72;;;-145.10;100.00
56334;BME280;42240;53.626;55.886;2022-10-13T08:21:42;75698.72;;;-145.10;99.69
56334;BME280;42240;53.626;55.886;2022-10-13T08:23:34;75698.72;;;-145.10;99.85
56334;BME280;42240;53.626;55.886;2022-10-13T08:25:08;75700.69;;;-145.10;100.00
56334;BME280;42240;53.626;55.886;2022-10-13T08:26:43;75704.63;;;-145.10;100.00
56334;BME280;42240;53.626;55.886;2022-10-13T08:28:22;75706.63;;;-145.10;100.00
56334;BME280;42240;53.626;55.886;2022-10-13T08:29:56;75720.47;;;-145.10;100.00